PWSweather.com
Personal Weather Stations
Station Observations
IHTIMAN1
Neighbourhood 1, IhtimanBG 2050

Neighbourhood 1IhtimanBG 2050

Lat: 42.436852, Lon: 23.817921

Elevation: 2066

Station Type: Oregon Scientific WMR968

http://ihtiman-meteo.com

High Low Average
Temperature 68.5°F20.3°C 43.7°F6.5°C 54.7°F12.6°C
Dew Point 49.6°F9.8°C 35.9°F2.2°C 42.4°F5.8°C
Winds 12.7 mph 20.4 kmh Calm Calm 4.0 mph SW6.4 kmh SW
Wind Gusts 24.2 mph38.9 kmh -- 6.0 mph9.7 kmh
Humidity 98% 36% 67%
Pressure 29.91 in1012.9 mb 29.80 in1009.1 mb -
Precipitation 0.00 in0.0 mm - -
Hour Temp Dew Point Humidity Winds Wind Gusts Pressure Precip Precip Rate Daily Precip Total
12:00 AM 48.3°F9.1°C 44.6°F7.0°C 87% Calm Calm -- 29.86 in1011.2 mb - 0.00 in0.0 mm 0.00 in0.0 mm
12:10 AM 47.8°F8.8°C 44.5°F6.9°C 88% Calm Calm -- 29.86 in1011.2 mb - 0.00 in0.0 mm 0.00 in0.0 mm
12:20 AM 47.8°F8.8°C 44.8°F7.1°C 89% Calm Calm -- 29.86 in1011.2 mb - 0.00 in0.0 mm 0.00 in0.0 mm
12:30 AM 47.7°F8.7°C 44.9°F7.2°C 90% Calm Calm -- 29.86 in1011.2 mb - 0.00 in0.0 mm 0.00 in0.0 mm
12:40 AM 47.7°F8.7°C 44.9°F7.2°C 90% Calm Calm -- 29.86 in1011.2 mb - 0.00 in0.0 mm 0.00 in0.0 mm
12:50 AM 47.7°F8.7°C 45.2°F7.3°C 91% Calm Calm -- 29.86 in1011.2 mb - 0.00 in0.0 mm 0.00 in0.0 mm
01:00 AM 47.5°F8.6°C 45.0°F7.2°C 91% Calm Calm -- 29.86 in1011.2 mb - 0.00 in0.0 mm 0.00 in0.0 mm
01:10 AM 47.4°F8.6°C 45.2°F7.3°C 92% Calm Calm -- 29.86 in1011.2 mb - 0.00 in0.0 mm 0.00 in0.0 mm
01:20 AM 47.3°F8.5°C 45.1°F7.3°C 92% Calm Calm -- 29.86 in1011.2 mb - 0.00 in0.0 mm 0.00 in0.0 mm
01:30 AM 47.3°F8.5°C 45.1°F7.3°C 92% Calm Calm -- 29.86 in1011.2 mb - 0.00 in0.0 mm 0.00 in0.0 mm
01:40 AM 47.3°F8.5°C 45.4°F7.4°C 93% Calm Calm -- 29.86 in1011.2 mb - 0.00 in0.0 mm 0.00 in0.0 mm
01:50 AM 47.3°F8.5°C 45.4°F7.4°C 93% Calm Calm 2.3 mph3.7 kmh 29.86 in1011.2 mb - 0.00 in0.0 mm 0.00 in0.0 mm
02:00 AM 47.2°F8.4°C 45.3°F7.4°C 93% Calm Calm 3.5 mph5.6 kmh 29.86 in1011.2 mb - 0.00 in0.0 mm 0.00 in0.0 mm
02:10 AM 46.8°F8.2°C 44.8°F7.1°C 93% Calm Calm -- 29.86 in1011.2 mb - 0.00 in0.0 mm 0.00 in0.0 mm
02:20 AM 46.6°F8.1°C 44.7°F7.1°C 93% Calm Calm -- 29.86 in1011.2 mb - 0.00 in0.0 mm 0.00 in0.0 mm
02:30 AM 46.6°F8.1°C 44.7°F7.1°C 93% Calm Calm -- 29.86 in1011.2 mb - 0.00 in0.0 mm 0.00 in0.0 mm
02:40 AM 46.8°F8.2°C 44.8°F7.1°C 93% Calm Calm -- 29.86 in1011.2 mb - 0.00 in0.0 mm 0.00 in0.0 mm
02:50 AM 46.9°F8.3°C 45.0°F7.2°C 93% Calm Calm -- 29.86 in1011.2 mb - 0.00 in0.0 mm 0.00 in0.0 mm
03:00 AM 47.1°F8.4°C 45.5°F7.5°C 94% Calm Calm 3.5 mph5.6 kmh 29.86 in1011.2 mb - 0.00 in0.0 mm 0.00 in0.0 mm
03:10 AM 47.2°F8.4°C 45.5°F7.5°C 94% 3.5 mph SE5.6 kmh SE 3.5 mph5.6 kmh 29.86 in1011.2 mb - 0.00 in0.0 mm 0.00 in0.0 mm
03:20 AM 46.9°F8.3°C 45.3°F7.4°C 94% Calm Calm -- 29.86 in1011.2 mb - 0.00 in0.0 mm 0.00 in0.0 mm
03:30 AM 46.8°F8.2°C 45.1°F7.3°C 94% Calm Calm -- 29.86 in1011.2 mb - 0.00 in0.0 mm 0.00 in0.0 mm
03:40 AM 46.8°F8.2°C 45.1°F7.3°C 94% Calm Calm -- 29.86 in1011.2 mb - 0.00 in0.0 mm 0.00 in0.0 mm
03:50 AM 46.8°F8.2°C 45.1°F7.3°C 94% Calm Calm -- 29.86 in1011.2 mb - 0.00 in0.0 mm 0.00 in0.0 mm
04:00 AM 46.8°F8.2°C 45.4°F7.4°C 95% Calm Calm -- 29.82 in1009.8 mb - 0.00 in0.0 mm 0.00 in0.0 mm
04:10 AM 46.6°F8.1°C 45.3°F7.4°C 95% Calm Calm -- 29.82 in1009.8 mb - 0.00 in0.0 mm 0.00 in0.0 mm
04:20 AM 46.0°F7.8°C 44.6°F7.0°C 95% Calm Calm -- 29.82 in1009.8 mb - 0.00 in0.0 mm 0.00 in0.0 mm
04:30 AM 45.3°F7.4°C 44.0°F6.7°C 95% Calm Calm -- 29.82 in1009.8 mb - 0.00 in0.0 mm 0.00 in0.0 mm
04:40 AM 45.0°F7.2°C 43.7°F6.5°C 95% Calm Calm -- 29.82 in1009.8 mb - 0.00 in0.0 mm 0.00 in0.0 mm
04:50 AM 44.8°F7.1°C 43.4°F6.3°C 95% Calm Calm -- 29.82 in1009.8 mb - 0.00 in0.0 mm 0.00 in0.0 mm
05:00 AM 44.6°F7.0°C 43.3°F6.3°C 95% Calm Calm -- 29.82 in1009.8 mb - 0.00 in0.0 mm 0.00 in0.0 mm
05:10 AM 44.6°F7.0°C 43.3°F6.3°C 95% Calm Calm -- 29.82 in1009.8 mb - 0.00 in0.0 mm 0.00 in0.0 mm
05:20 AM 44.6°F7.0°C 43.5°F6.4°C 96% Calm Calm -- 29.82 in1009.8 mb - 0.00 in0.0 mm 0.00 in0.0 mm
05:30 AM 44.6°F7.0°C 43.5°F6.4°C 96% Calm Calm -- 29.82 in1009.8 mb - 0.00 in0.0 mm 0.00 in0.0 mm
05:40 AM 44.6°F7.0°C 43.5°F6.4°C 96% Calm Calm -- 29.82 in1009.8 mb - 0.00 in0.0 mm 0.00 in0.0 mm
05:50 AM 44.4°F6.9°C 43.6°F6.4°C 97% Calm Calm 3.5 mph5.6 kmh 29.82 in1009.8 mb - 0.00 in0.0 mm 0.00 in0.0 mm
06:00 AM 44.1°F6.7°C 43.3°F6.3°C 97% Calm Calm -- 29.82 in1009.8 mb - 0.00 in0.0 mm 0.00 in0.0 mm
06:10 AM 43.9°F6.6°C 43.1°F6.2°C 97% Calm Calm -- 29.82 in1009.8 mb - 0.00 in0.0 mm 0.00 in0.0 mm
06:20 AM 43.7°F6.5°C 42.9°F6.1°C 97% Calm Calm -- 29.82 in1009.8 mb - 0.00 in0.0 mm 0.00 in0.0 mm
06:30 AM 43.7°F6.5°C 42.9°F6.1°C 97% Calm Calm -- 29.82 in1009.8 mb - 0.00 in0.0 mm 0.00 in0.0 mm
06:40 AM 44.4°F6.9°C 43.6°F6.4°C 97% 2.3 mph SE3.7 kmh SE 3.5 mph5.6 kmh 29.82 in1009.8 mb - 0.00 in0.0 mm 0.00 in0.0 mm
06:50 AM 45.0°F7.2°C 44.5°F6.9°C 98% 3.5 mph S5.6 kmh S 3.5 mph5.6 kmh 29.82 in1009.8 mb - 0.00 in0.0 mm 0.00 in0.0 mm
07:00 AM 46.0°F7.8°C 45.5°F7.5°C 98% Calm Calm -- 29.82 in1009.8 mb - 0.00 in0.0 mm 0.00 in0.0 mm
07:10 AM 47.4°F8.6°C 46.9°F8.3°C 98% Calm Calm 3.5 mph5.6 kmh 29.82 in1009.8 mb - 0.00 in0.0 mm 0.00 in0.0 mm
07:20 AM 48.5°F9.2°C 47.7°F8.7°C 97% 2.3 mph SSW3.7 kmh SSW 3.5 mph5.6 kmh 29.82 in1009.8 mb - 0.00 in0.0 mm 0.00 in0.0 mm
07:30 AM 49.3°F9.6°C 48.3°F9.1°C 96% Calm Calm -- 29.82 in1009.8 mb - 0.00 in0.0 mm 0.00 in0.0 mm
07:40 AM 51.9°F11.1°C 49.6°F9.8°C 92% Calm Calm -- 29.82 in1009.8 mb - 0.00 in0.0 mm 0.00 in0.0 mm
07:50 AM 53.0°F11.7°C 48.3°F9.1°C 84% Calm Calm -- 29.82 in1009.8 mb - 0.00 in0.0 mm 0.00 in0.0 mm
08:00 AM 54.3°F12.4°C 46.9°F8.3°C 76% Calm Calm -- 29.82 in1009.8 mb - 0.00 in0.0 mm 0.00 in0.0 mm
08:10 AM 55.9°F13.3°C 46.6°F8.1°C 71% 1.2 mph NW1.9 kmh NW 3.5 mph5.6 kmh 29.82 in1009.8 mb - 0.00 in0.0 mm 0.00 in0.0 mm
08:20 AM 56.5°F13.6°C 46.4°F8.0°C 69% 3.5 mph N5.6 kmh N 5.8 mph9.3 kmh 29.82 in1009.8 mb - 0.00 in0.0 mm 0.00 in0.0 mm
08:30 AM 57.4°F14.1°C 47.3°F8.5°C 69% 1.2 mph NW1.9 kmh NW 5.8 mph9.3 kmh 29.82 in1009.8 mb - 0.00 in0.0 mm 0.00 in0.0 mm
08:40 AM 59.0°F15.0°C 46.8°F8.2°C 64% Calm Calm -- 29.82 in1009.8 mb - 0.00 in0.0 mm 0.00 in0.0 mm
08:50 AM 59.1°F15.1°C 45.2°F7.3°C 60% 2.3 mph NW3.7 kmh NW 3.5 mph5.6 kmh 29.82 in1009.8 mb - 0.00 in0.0 mm 0.00 in0.0 mm
09:00 AM 61.0°F16.1°C 46.1°F7.8°C 58% Calm Calm -- 29.82 in1009.8 mb - 0.00 in0.0 mm 0.00 in0.0 mm
09:10 AM 63.1°F17.3°C 46.7°F8.2°C 55% 3.5 mph NW5.6 kmh NW 4.6 mph7.4 kmh 29.82 in1009.8 mb - 0.00 in0.0 mm 0.00 in0.0 mm
09:20 AM 63.8°F17.7°C 46.8°F8.2°C 54% 2.3 mph WSW3.7 kmh WSW 5.8 mph9.3 kmh 29.82 in1009.8 mb - 0.00 in0.0 mm 0.00 in0.0 mm
09:30 AM 63.5°F17.5°C 46.6°F8.1°C 54% 3.5 mph W5.6 kmh W 5.8 mph9.3 kmh 29.82 in1009.8 mb - 0.00 in0.0 mm 0.00 in0.0 mm
09:40 AM 61.4°F16.3°C 45.1°F7.3°C 55% 2.3 mph W3.7 kmh W 2.3 mph3.7 kmh 29.82 in1009.8 mb - 0.00 in0.0 mm 0.00 in0.0 mm
09:50 AM 62.4°F16.9°C 45.5°F7.5°C 54% 1.2 mph S1.9 kmh S 3.5 mph5.6 kmh 29.82 in1009.8 mb - 0.00 in0.0 mm 0.00 in0.0 mm
10:00 AM 63.6°F17.6°C 46.6°F8.1°C 54% 2.3 mph SW3.7 kmh SW 3.5 mph5.6 kmh 29.82 in1009.8 mb - 0.00 in0.0 mm 0.00 in0.0 mm
10:10 AM 63.6°F17.6°C 46.2°F7.9°C 53% 3.5 mph S5.6 kmh S 5.8 mph9.3 kmh 29.82 in1009.8 mb - 0.00 in0.0 mm 0.00 in0.0 mm
10:20 AM 62.9°F17.2°C 45.5°F7.5°C 53% Calm Calm 3.5 mph5.6 kmh 29.82 in1009.8 mb - 0.00 in0.0 mm 0.00 in0.0 mm
10:30 AM 63.0°F17.2°C 46.1°F7.8°C 54% 2.3 mph NNW3.7 kmh NNW 3.5 mph5.6 kmh 29.82 in1009.8 mb - 0.00 in0.0 mm 0.00 in0.0 mm
10:40 AM 63.5°F17.5°C 45.5°F7.5°C 52% 3.5 mph NNW5.6 kmh NNW 3.5 mph5.6 kmh 29.82 in1009.8 mb - 0.00 in0.0 mm 0.00 in0.0 mm
10:50 AM 63.0°F17.2°C 45.1°F7.3°C 52% Calm Calm 3.5 mph5.6 kmh 29.82 in1009.8 mb - 0.00 in0.0 mm 0.00 in0.0 mm
11:00 AM 63.1°F17.3°C 45.7°F7.6°C 53% Calm Calm -- 29.82 in1009.8 mb - 0.00 in0.0 mm 0.00 in0.0 mm
11:10 AM 63.1°F17.3°C 44.7°F7.1°C 51% 3.5 mph W5.6 kmh W 3.5 mph5.6 kmh 29.82 in1009.8 mb - 0.00 in0.0 mm 0.00 in0.0 mm
11:20 AM 63.0°F17.2°C 44.0°F6.7°C 50% 1.2 mph WNW1.9 kmh WNW -- 29.82 in1009.8 mb - 0.00 in0.0 mm 0.00 in0.0 mm
11:30 AM 63.1°F17.3°C 44.1°F6.7°C 50% 4.6 mph WNW7.4 kmh WNW 5.8 mph9.3 kmh 29.82 in1009.8 mb - 0.00 in0.0 mm 0.00 in0.0 mm
11:40 AM 63.1°F17.3°C 43.1°F6.2°C 48% 1.2 mph NW1.9 kmh NW 3.5 mph5.6 kmh 29.82 in1009.8 mb - 0.00 in0.0 mm 0.00 in0.0 mm
11:50 AM 62.6°F17.0°C 43.2°F6.2°C 49% 8.1 mph NW13.0 kmh NW 10.4 mph16.7 kmh 29.82 in1009.8 mb - 0.00 in0.0 mm 0.00 in0.0 mm
12:00 PM 61.0°F16.1°C 42.2°F5.7°C 50% 6.9 mph NW11.1 kmh NW 6.9 mph11.1 kmh 29.82 in1009.8 mb - 0.00 in0.0 mm 0.00 in0.0 mm
12:10 PM 64.0°F17.8°C 45.0°F7.2°C 50% 8.1 mph WNW13.0 kmh WNW 12.7 mph20.4 kmh 29.82 in1009.8 mb - 0.00 in0.0 mm 0.00 in0.0 mm
12:20 PM 64.8°F18.2°C 44.1°F6.7°C 47% 6.9 mph NW11.1 kmh NW 9.2 mph14.8 kmh 29.82 in1009.8 mb - 0.00 in0.0 mm 0.00 in0.0 mm
12:30 PM 67.0°F19.4°C 44.4°F6.9°C 44% 5.8 mph NNW9.3 kmh NNW 5.8 mph9.3 kmh 29.80 in1009.1 mb - 0.00 in0.0 mm 0.00 in0.0 mm
12:40 PM 68.2°F20.1°C 44.2°F6.8°C 42% 4.6 mph NNW7.4 kmh NNW 13.8 mph22.2 kmh 29.80 in1009.1 mb - 0.00 in0.0 mm 0.00 in0.0 mm
12:50 PM 64.8°F18.2°C 41.8°F5.4°C 43% 9.2 mph NNW14.8 kmh NNW 12.7 mph20.4 kmh 29.80 in1009.1 mb - 0.00 in0.0 mm 0.00 in0.0 mm
01:00 PM 62.3°F16.8°C 41.2°F5.1°C 46% 8.1 mph NW13.0 kmh NW 8.1 mph13.0 kmh 29.82 in1009.8 mb - 0.00 in0.0 mm 0.00 in0.0 mm
01:10 PM 60.4°F15.8°C 40.0°F4.4°C 47% 12.7 mph WNW20.4 kmh WNW 24.2 mph38.9 kmh 29.82 in1009.8 mb - 0.00 in0.0 mm 0.00 in0.0 mm
01:20 PM 62.3°F16.8°C 42.3°F5.7°C 48% 8.1 mph NW13.0 kmh NW 20.7 mph33.3 kmh 29.82 in1009.8 mb - 0.00 in0.0 mm 0.00 in0.0 mm
01:30 PM 61.9°F16.6°C 40.9°F4.9°C 46% 9.2 mph NW14.8 kmh NW 9.2 mph14.8 kmh 29.82 in1009.8 mb - 0.00 in0.0 mm 0.00 in0.0 mm
01:40 PM 58.9°F14.9°C 39.8°F4.3°C 49% 6.9 mph N11.1 kmh N 9.2 mph14.8 kmh 29.82 in1009.8 mb - 0.00 in0.0 mm 0.00 in0.0 mm
01:50 PM 60.6°F15.9°C 42.3°F5.7°C 51% 4.6 mph NNE7.4 kmh NNE 5.8 mph9.3 kmh 29.82 in1009.8 mb - 0.00 in0.0 mm 0.00 in0.0 mm
02:00 PM 62.4°F16.9°C 42.4°F5.8°C 48% 5.8 mph NE9.3 kmh NE 5.8 mph9.3 kmh 29.82 in1009.8 mb - 0.00 in0.0 mm 0.00 in0.0 mm
02:10 PM 63.4°F17.4°C 42.3°F5.7°C 46% 5.8 mph NE9.3 kmh NE 11.5 mph18.5 kmh 29.82 in1009.8 mb - 0.00 in0.0 mm 0.00 in0.0 mm
02:20 PM 66.6°F19.2°C 44.5°F6.9°C 45% 12.7 mph NW20.4 kmh NW 17.3 mph27.8 kmh 29.80 in1009.1 mb - 0.00 in0.0 mm 0.00 in0.0 mm
02:30 PM 67.4°F19.7°C 44.1°F6.7°C 43% 9.2 mph NW14.8 kmh NW 17.3 mph27.8 kmh 29.80 in1009.1 mb - 0.00 in0.0 mm 0.00 in0.0 mm
02:40 PM 67.7°F19.8°C 43.8°F6.6°C 42% 12.7 mph NNW20.4 kmh NNW 12.7 mph20.4 kmh 29.80 in1009.1 mb - 0.00 in0.0 mm 0.00 in0.0 mm
02:50 PM 67.8°F19.9°C 42.6°F5.9°C 40% 8.1 mph NNW13.0 kmh NNW 15.0 mph24.1 kmh 29.80 in1009.1 mb - 0.00 in0.0 mm 0.00 in0.0 mm
03:00 PM 68.5°F20.3°C 41.9°F5.5°C 38% 10.4 mph NW16.7 kmh NW 15.0 mph24.1 kmh 29.80 in1009.1 mb - 0.00 in0.0 mm 0.00 in0.0 mm
03:10 PM 68.5°F20.3°C 40.5°F4.7°C 36% 10.4 mph NNW16.7 kmh NNW 15.0 mph24.1 kmh 29.80 in1009.1 mb - 0.00 in0.0 mm 0.00 in0.0 mm
03:20 PM 66.7°F19.3°C 38.9°F3.8°C 36% 10.4 mph NW16.7 kmh NW 17.3 mph27.8 kmh 29.80 in1009.1 mb - 0.00 in0.0 mm 0.00 in0.0 mm
03:30 PM 64.6°F18.1°C 37.7°F3.2°C 37% 10.4 mph NW16.7 kmh NW 13.8 mph22.2 kmh 29.80 in1009.1 mb - 0.00 in0.0 mm 0.00 in0.0 mm
03:40 PM 63.5°F17.5°C 38.1°F3.4°C 39% 6.9 mph NW11.1 kmh NW 12.7 mph20.4 kmh 29.80 in1009.1 mb - 0.00 in0.0 mm 0.00 in0.0 mm
03:50 PM 62.3°F16.8°C 38.3°F3.5°C 41% 8.1 mph WSW13.0 kmh WSW 11.5 mph18.5 kmh 29.80 in1009.1 mb - 0.00 in0.0 mm 0.00 in0.0 mm
04:00 PM 57.7°F14.3°C 40.6°F4.8°C 53% 10.4 mph SSW16.7 kmh SSW 10.4 mph16.7 kmh 29.82 in1009.8 mb - 0.00 in0.0 mm 0.00 in0.0 mm
04:10 PM 61.2°F16.2°C 47.2°F8.4°C 60% 9.2 mph S14.8 kmh S 12.7 mph20.4 kmh 29.82 in1009.8 mb - 0.00 in0.0 mm 0.00 in0.0 mm
04:20 PM 60.1°F15.6°C 43.4°F6.3°C 54% 5.8 mph S9.3 kmh S 5.8 mph9.3 kmh 29.82 in1009.8 mb - 0.00 in0.0 mm 0.00 in0.0 mm
04:30 PM 60.9°F16.1°C 44.1°F6.7°C 54% 5.8 mph SSW9.3 kmh SSW 8.1 mph13.0 kmh 29.80 in1009.1 mb - 0.00 in0.0 mm 0.00 in0.0 mm
04:40 PM 62.9°F17.2°C 42.9°F6.1°C 48% 4.6 mph S7.4 kmh S 5.8 mph9.3 kmh 29.80 in1009.1 mb - 0.00 in0.0 mm 0.00 in0.0 mm
04:50 PM 64.2°F17.9°C 43.0°F6.1°C 46% 3.5 mph SW5.6 kmh SW 5.8 mph9.3 kmh 29.80 in1009.1 mb - 0.00 in0.0 mm 0.00 in0.0 mm
05:00 PM 61.2°F16.2°C 40.8°F4.9°C 47% 3.5 mph S5.6 kmh S 4.6 mph7.4 kmh 29.80 in1009.1 mb - 0.00 in0.0 mm 0.00 in0.0 mm
05:10 PM 60.0°F15.6°C 40.8°F4.9°C 49% 5.8 mph SE9.3 kmh SE 5.8 mph9.3 kmh 29.80 in1009.1 mb - 0.00 in0.0 mm 0.00 in0.0 mm
05:20 PM 58.8°F14.9°C 42.2°F5.7°C 54% 5.8 mph SE9.3 kmh SE 5.8 mph9.3 kmh 29.80 in1009.1 mb - 0.00 in0.0 mm 0.00 in0.0 mm
05:30 PM 60.5°F15.8°C 41.2°F5.1°C 49% 8.1 mph SW13.0 kmh SW 15.0 mph24.1 kmh 29.82 in1009.8 mb - 0.00 in0.0 mm 0.00 in0.0 mm
05:40 PM 60.3°F15.7°C 38.8°F3.8°C 45% 9.2 mph S14.8 kmh S 9.2 mph14.8 kmh 29.82 in1009.8 mb - 0.00 in0.0 mm 0.00 in0.0 mm
05:50 PM 60.9°F16.1°C 38.8°F3.8°C 44% 5.8 mph SW9.3 kmh SW 9.2 mph14.8 kmh 29.80 in1009.1 mb - 0.00 in0.0 mm 0.00 in0.0 mm
06:00 PM 60.1°F15.6°C 38.7°F3.7°C 45% 4.6 mph SSW7.4 kmh SSW 8.1 mph13.0 kmh 29.80 in1009.1 mb - 0.00 in0.0 mm 0.00 in0.0 mm
06:10 PM 59.2°F15.1°C 38.4°F3.6°C 46% 3.5 mph S5.6 kmh S 8.1 mph13.0 kmh 29.80 in1009.1 mb - 0.00 in0.0 mm 0.00 in0.0 mm
06:20 PM 58.5°F14.7°C 38.3°F3.5°C 47% 6.9 mph S11.1 kmh S 8.1 mph13.0 kmh 29.80 in1009.1 mb - 0.00 in0.0 mm 0.00 in0.0 mm
06:30 PM 58.1°F14.5°C 37.4°F3.0°C 46% 6.9 mph S11.1 kmh S 6.9 mph11.1 kmh 29.80 in1009.1 mb - 0.00 in0.0 mm 0.00 in0.0 mm
06:40 PM 58.5°F14.7°C 37.2°F2.9°C 45% 4.6 mph SSW7.4 kmh SSW 5.8 mph9.3 kmh 29.80 in1009.1 mb - 0.00 in0.0 mm 0.00 in0.0 mm
06:50 PM 58.3°F14.6°C 37.0°F2.8°C 45% 5.8 mph S9.3 kmh S 8.1 mph13.0 kmh 29.80 in1009.1 mb - 0.00 in0.0 mm 0.00 in0.0 mm
07:00 PM 58.1°F14.5°C 36.9°F2.7°C 45% 5.8 mph SSE9.3 kmh SSE 5.8 mph9.3 kmh 29.80 in1009.1 mb - 0.00 in0.0 mm 0.00 in0.0 mm
07:10 PM 57.7°F14.3°C 36.5°F2.5°C 45% 2.3 mph NNE3.7 kmh NNE 3.5 mph5.6 kmh 29.80 in1009.1 mb - 0.00 in0.0 mm 0.00 in0.0 mm
07:20 PM 57.0°F13.9°C 36.4°F2.4°C 46% Calm Calm -- 29.80 in1009.1 mb - 0.00 in0.0 mm 0.00 in0.0 mm
07:30 PM 56.1°F13.4°C 36.2°F2.3°C 47% 4.6 mph N7.4 kmh N 11.5 mph18.5 kmh 29.80 in1009.1 mb - 0.00 in0.0 mm 0.00 in0.0 mm
07:40 PM 55.9°F13.3°C 36.0°F2.2°C 47% 4.6 mph N7.4 kmh N 8.1 mph13.0 kmh 29.80 in1009.1 mb - 0.00 in0.0 mm 0.00 in0.0 mm
07:50 PM 55.7°F13.2°C 36.3°F2.4°C 48% 5.8 mph N9.3 kmh N 8.1 mph13.0 kmh 29.82 in1009.8 mb - 0.00 in0.0 mm 0.00 in0.0 mm
08:00 PM 55.4°F13.0°C 36.0°F2.2°C 48% 4.6 mph N7.4 kmh N 8.1 mph13.0 kmh 29.86 in1011.2 mb - 0.00 in0.0 mm 0.00 in0.0 mm
08:10 PM 54.8°F12.7°C 36.5°F2.5°C 50% 3.5 mph NW5.6 kmh NW 5.8 mph9.3 kmh 29.86 in1011.2 mb - 0.00 in0.0 mm 0.00 in0.0 mm
08:20 PM 53.6°F12.0°C 35.9°F2.2°C 51% 3.5 mph W5.6 kmh W 3.5 mph5.6 kmh 29.86 in1011.2 mb - 0.00 in0.0 mm 0.00 in0.0 mm
08:30 PM 52.7°F11.5°C 36.0°F2.2°C 53% 3.5 mph NW5.6 kmh NW 5.8 mph9.3 kmh 29.86 in1011.2 mb - 0.00 in0.0 mm 0.00 in0.0 mm
08:40 PM 52.0°F11.1°C 36.4°F2.4°C 55% 3.5 mph NW5.6 kmh NW 5.8 mph9.3 kmh 29.86 in1011.2 mb - 0.00 in0.0 mm 0.00 in0.0 mm
08:50 PM 51.5°F10.8°C 36.3°F2.4°C 56% 4.6 mph NW7.4 kmh NW 5.8 mph9.3 kmh 29.88 in1011.9 mb - 0.00 in0.0 mm 0.00 in0.0 mm
09:00 PM 51.4°F10.8°C 36.7°F2.6°C 57% 4.6 mph NW7.4 kmh NW 5.8 mph9.3 kmh 29.88 in1011.9 mb - 0.00 in0.0 mm 0.00 in0.0 mm
09:10 PM 51.1°F10.6°C 36.8°F2.7°C 58% 4.6 mph NW7.4 kmh NW 5.8 mph9.3 kmh 29.88 in1011.9 mb - 0.00 in0.0 mm 0.00 in0.0 mm
09:20 PM 50.7°F10.4°C 36.8°F2.7°C 59% 9.2 mph N14.8 kmh N 12.7 mph20.4 kmh 29.88 in1011.9 mb - 0.00 in0.0 mm 0.00 in0.0 mm
09:30 PM 51.3°F10.7°C 38.3°F3.5°C 61% 8.1 mph NW13.0 kmh NW 9.2 mph14.8 kmh 29.88 in1011.9 mb - 0.00 in0.0 mm 0.00 in0.0 mm
09:40 PM 50.8°F10.4°C 38.2°F3.4°C 62% 8.1 mph NNW13.0 kmh NNW 12.7 mph20.4 kmh 29.88 in1011.9 mb - 0.00 in0.0 mm 0.00 in0.0 mm
09:50 PM 50.2°F10.1°C 37.7°F3.2°C 62% 8.1 mph NW13.0 kmh NW 11.5 mph18.5 kmh 29.91 in1012.9 mb - 0.00 in0.0 mm 0.00 in0.0 mm
10:00 PM 49.8°F9.9°C 37.7°F3.2°C 63% 8.1 mph NW13.0 kmh NW 11.5 mph18.5 kmh 29.91 in1012.9 mb - 0.00 in0.0 mm 0.00 in0.0 mm
10:10 PM 49.3°F9.6°C 37.6°F3.1°C 64% 8.1 mph NNW13.0 kmh NNW 9.2 mph14.8 kmh 29.91 in1012.9 mb - 0.00 in0.0 mm 0.00 in0.0 mm
10:20 PM 48.7°F9.3°C 37.9°F3.3°C 66% 6.9 mph NW11.1 kmh NW 11.5 mph18.5 kmh 29.88 in1011.9 mb - 0.00 in0.0 mm 0.00 in0.0 mm
10:30 PM 48.5°F9.2°C 38.0°F3.3°C 67% 8.1 mph NNW13.0 kmh NNW 11.5 mph18.5 kmh 29.88 in1011.9 mb - 0.00 in0.0 mm 0.00 in0.0 mm
10:40 PM 48.2°F9.0°C 38.5°F3.6°C 69% 8.1 mph NNW13.0 kmh NNW 12.7 mph20.4 kmh 29.88 in1011.9 mb - 0.00 in0.0 mm 0.00 in0.0 mm
10:50 PM 48.0°F8.9°C 38.7°F3.7°C 70% 6.9 mph N11.1 kmh N 9.2 mph14.8 kmh 29.88 in1011.9 mb - 0.00 in0.0 mm 0.00 in0.0 mm
11:00 PM 47.5°F8.6°C 38.6°F3.7°C 71% 6.9 mph NW11.1 kmh NW 11.5 mph18.5 kmh 29.88 in1011.9 mb - 0.00 in0.0 mm 0.00 in0.0 mm
11:10 PM 47.1°F8.4°C 38.6°F3.7°C 72% 6.9 mph N11.1 kmh N 11.5 mph18.5 kmh 29.88 in1011.9 mb - 0.00 in0.0 mm 0.00 in0.0 mm
11:20 PM 46.8°F8.2°C 38.9°F3.8°C 74% 8.1 mph NNW13.0 kmh NNW 9.2 mph14.8 kmh 29.88 in1011.9 mb - 0.00 in0.0 mm 0.00 in0.0 mm
11:30 PM 46.6°F8.1°C 39.1°F3.9°C 75% 6.9 mph NNW11.1 kmh NNW 10.4 mph16.7 kmh 29.88 in1011.9 mb - 0.00 in0.0 mm 0.00 in0.0 mm
11:40 PM 46.4°F8.0°C 38.9°F3.8°C 75% 6.9 mph NNW11.1 kmh NNW 12.7 mph20.4 kmh 29.88 in1011.9 mb - 0.00 in0.0 mm 0.00 in0.0 mm
11:50 PM 46.0°F7.8°C 38.9°F3.8°C 76% 6.9 mph N11.1 kmh N 11.5 mph18.5 kmh 29.88 in1011.9 mb - 0.00 in0.0 mm 0.00 in0.0 mm